createdAt,value
2019-03-29T00:02:14.090Z,102100.59
2019-03-29T00:05:18.214Z,102102.41
2019-03-29T00:08:21.531Z,102102.92
2019-03-29T00:11:24.857Z,102100.97
2019-03-29T00:14:28.192Z,102101.81
2019-03-29T00:17:31.513Z,102111.48
2019-03-29T00:20:34.836Z,102111.65
2019-03-29T00:23:38.163Z,102107.53
2019-03-29T00:26:41.482Z,102112.23
2019-03-29T00:29:44.807Z,102112.00
2019-03-29T00:32:48.133Z,102113.23
2019-03-29T00:35:51.473Z,102113.31
2019-03-29T00:38:54.796Z,102109.23
2019-03-29T00:41:58.119Z,102108.61
2019-03-29T00:45:01.485Z,102109.53
2019-03-29T00:48:04.802Z,102101.04
2019-03-29T00:51:08.145Z,102104.45
2019-03-29T00:54:11.429Z,102098.55
2019-03-29T00:57:14.759Z,102102.41
2019-03-29T01:00:18.099Z,102105.91
2019-03-29T01:03:21.436Z,102107.78
2019-03-29T01:06:24.763Z,102106.95
2019-03-29T01:09:28.090Z,102104.23
2019-03-29T01:12:32.843Z,102097.42
2019-03-29T01:15:36.320Z,102096.83
2019-03-29T01:18:39.617Z,102095.47
2019-03-29T01:21:43.003Z,102094.08
2019-03-29T01:24:46.307Z,102101.80
2019-03-29T01:27:49.633Z,102096.91
2019-03-29T01:30:52.979Z,102093.63
2019-03-29T01:33:56.373Z,102087.65
2019-03-29T01:36:59.707Z,102088.02
2019-03-29T01:40:03.579Z,102090.00
2019-03-29T01:43:06.917Z,102085.09
2019-03-29T01:46:10.292Z,102087.06
2019-03-29T01:49:13.622Z,102081.84
2019-03-29T01:52:16.971Z,102082.36
2019-03-29T01:55:20.310Z,102074.95
2019-03-29T01:58:24.357Z,102074.95
2019-03-29T02:01:29.109Z,102076.17
2019-03-29T02:04:32.512Z,102071.99
2019-03-29T02:07:36.042Z,102066.22
2019-03-29T02:10:39.957Z,102064.80
2019-03-29T02:13:43.795Z,102068.36
2019-03-29T02:16:47.161Z,102065.16
2019-03-29T02:19:50.544Z,102064.63
2019-03-29T02:22:53.900Z,102065.34
2019-03-29T02:25:57.237Z,102052.75
2019-03-29T02:29:00.570Z,102053.62
2019-03-29T02:32:03.917Z,102053.53
2019-03-29T02:35:07.885Z,102049.51
2019-03-29T02:38:11.256Z,102055.03
2019-03-29T02:41:14.559Z,102043.45
2019-03-29T02:44:17.900Z,102038.01
2019-03-29T02:47:21.681Z,102046.66
2019-03-29T02:50:25.434Z,102049.45
2019-03-29T02:53:28.796Z,102045.19
2019-03-29T02:56:32.127Z,102037.88
2019-03-29T02:59:35.457Z,102044.06
2019-03-29T03:02:38.793Z,102039.45
2019-03-29T03:05:42.110Z,102036.80
2019-03-29T03:08:45.410Z,102032.27
2019-03-29T03:11:48.702Z,102035.23
2019-03-29T03:14:52.146Z,102032.79
2019-03-29T03:17:55.414Z,102029.09
2019-03-29T03:20:58.720Z,102033.70
2019-03-29T03:24:02.148Z,102026.52
2019-03-29T03:27:05.469Z,102020.17
2019-03-29T03:30:10.235Z,102026.65
2019-03-29T03:33:13.895Z,102031.43
2019-03-29T03:36:17.195Z,102030.28
2019-03-29T03:39:31.370Z,102031.00
2019-03-29T03:42:25.631Z,102025.70
2019-03-29T03:45:28.950Z,102024.47
2019-03-29T03:48:32.259Z,102014.19
2019-03-29T03:51:35.562Z,102017.36
2019-03-29T03:54:38.874Z,102019.93
2019-03-29T03:57:42.171Z,102017.27
2019-03-29T04:00:53.648Z,102016.22
2019-03-29T04:03:56.948Z,102016.83
2019-03-29T04:07:00.407Z,102019.92
2019-03-29T04:10:05.462Z,102017.61
2019-03-29T04:13:08.765Z,102019.32
2019-03-29T04:16:12.072Z,102021.47
2019-03-29T04:19:15.398Z,102019.12
2019-03-29T04:22:18.704Z,102024.34
2019-03-29T04:25:22.221Z,102019.12
2019-03-29T04:28:26.690Z,102019.72
2019-03-29T04:31:29.985Z,102013.64
2019-03-29T04:34:33.298Z,102015.88
2019-03-29T04:37:36.586Z,102015.64
2019-03-29T04:40:39.903Z,102023.47
2019-03-29T04:43:43.202Z,102024.32
2019-03-29T04:46:46.778Z,102025.67
2019-03-29T04:49:50.079Z,102021.05
2019-03-29T04:52:53.387Z,102025.22
2019-03-29T04:55:57.607Z,102022.05
2019-03-29T04:59:00.949Z,102026.20
2019-03-29T05:02:04.277Z,102024.55
2019-03-29T05:05:07.601Z,102026.00
2019-03-29T05:08:10.893Z,102032.72
2019-03-29T05:11:14.234Z,102029.67
2019-03-29T05:14:17.566Z,102022.59
2019-03-29T05:17:20.875Z,102028.85
2019-03-29T05:20:24.256Z,102034.45
2019-03-29T05:23:27.546Z,102032.58
2019-03-29T05:26:30.929Z,102037.03
2019-03-29T05:29:34.223Z,102042.11
2019-03-29T05:32:37.531Z,102037.34
2019-03-29T05:35:40.977Z,102041.13
2019-03-29T05:38:44.392Z,102040.14
2019-03-29T05:41:47.745Z,102042.84
2019-03-29T05:44:51.025Z,102037.80
2019-03-29T05:47:54.340Z,102038.01
2019-03-29T05:50:57.664Z,102044.14
2019-03-29T05:54:01.286Z,102038.91
2019-03-29T05:57:05.096Z,102038.31
2019-03-29T06:00:10.652Z,102043.02
2019-03-29T06:03:14.007Z,102049.23
2019-03-29T06:06:17.378Z,102042.50
2019-03-29T06:09:20.746Z,102047.36
2019-03-29T06:12:24.065Z,102043.30
2019-03-29T06:15:27.370Z,102042.76
2019-03-29T06:18:30.705Z,102045.48
2019-03-29T06:21:34.010Z,102044.38
2019-03-29T06:24:37.330Z,102040.81
2019-03-29T06:27:40.636Z,102048.77
2019-03-29T06:30:43.937Z,102045.41
2019-03-29T06:33:47.446Z,102037.31
2019-03-29T06:36:50.768Z,102036.56
2019-03-29T06:39:54.084Z,102043.70
2019-03-29T06:42:57.398Z,102049.20
2019-03-29T06:46:00.772Z,102042.33
2019-03-29T06:49:04.095Z,102044.59
2019-03-29T06:52:07.404Z,102042.41
2019-03-29T06:55:10.711Z,102039.85
2019-03-29T06:58:14.014Z,102038.82
2019-03-29T07:01:17.333Z,102041.06
2019-03-29T07:04:20.645Z,102035.94
2019-03-29T07:07:23.954Z,102033.55
2019-03-29T07:10:27.323Z,102040.09
2019-03-29T07:13:30.729Z,102040.97
2019-03-29T07:16:34.261Z,102037.89
2019-03-29T07:19:37.569Z,102038.09
2019-03-29T07:22:40.929Z,102037.55
2019-03-29T07:25:44.239Z,102045.66
2019-03-29T07:28:47.577Z,102042.34
2019-03-29T07:31:53.190Z,102040.17
2019-03-29T07:34:55.925Z,102042.23
2019-03-29T07:37:59.247Z,102040.80
2019-03-29T07:41:02.626Z,102041.00
2019-03-29T07:44:05.957Z,102035.52
2019-03-29T07:47:09.320Z,102034.53
2019-03-29T07:50:12.689Z,102038.19
2019-03-29T07:53:15.986Z,102033.94
2019-03-29T07:56:19.295Z,102033.09
2019-03-29T07:59:23.360Z,102034.66
2019-03-29T08:02:26.786Z,102038.06
2019-03-29T08:05:30.102Z,102038.46
2019-03-29T08:08:34.527Z,102040.34
2019-03-29T08:11:46.118Z,102031.55
2019-03-29T08:14:43.381Z,102038.23
2019-03-29T08:17:46.696Z,102041.84
2019-03-29T08:20:50.129Z,102038.77
2019-03-29T08:23:53.435Z,102037.39
2019-03-29T08:26:56.746Z,102042.25
2019-03-29T08:30:00.095Z,102039.52
2019-03-29T08:33:03.536Z,102031.50
2019-03-29T08:36:06.855Z,102030.13
2019-03-29T08:39:10.437Z,102039.69
2019-03-29T08:42:13.735Z,102036.47
2019-03-29T08:45:17.062Z,102038.83
2019-03-29T08:48:20.359Z,102039.95
2019-03-29T08:51:23.660Z,102041.13
2019-03-29T08:54:26.961Z,102042.34
2019-03-29T08:57:30.365Z,102036.86
2019-03-29T09:00:33.746Z,102038.57
2019-03-29T09:03:37.049Z,102037.67
2019-03-29T09:06:52.455Z,102036.30
2019-03-29T09:09:46.578Z,102035.63
2019-03-29T09:12:49.978Z,102033.75
2019-03-29T09:15:53.295Z,102033.05
2019-03-29T09:18:56.657Z,102023.04
2019-03-29T09:21:59.991Z,102021.47
2019-03-29T09:25:03.754Z,102023.89
2019-03-29T09:28:07.075Z,102024.88
2019-03-29T09:31:10.586Z,102019.42
2019-03-29T09:34:13.903Z,102021.10
2019-03-29T09:37:18.568Z,102019.66
2019-03-29T09:40:21.829Z,102017.50
2019-03-29T09:43:26.769Z,102021.52
2019-03-29T09:46:30.246Z,102018.42
2019-03-29T09:49:33.581Z,102016.65
2019-03-29T09:52:36.902Z,102010.88
2019-03-29T09:55:40.197Z,102013.28
2019-03-29T09:58:45.181Z,102004.98
2019-03-29T10:01:48.728Z,102010.21
2019-03-29T10:04:52.047Z,102007.38
2019-03-29T10:07:55.386Z,102007.81
2019-03-29T10:10:58.697Z,102006.80
2019-03-29T10:14:02.025Z,102004.95
2019-03-29T10:17:05.323Z,102005.48
2019-03-29T10:20:08.662Z,102004.83
2019-03-29T10:23:12.021Z,101999.70
2019-03-29T10:26:15.314Z,102005.01
2019-03-29T10:29:18.656Z,102005.36
2019-03-29T10:32:21.976Z,101985.61
2019-03-29T10:35:28.855Z,101989.87
2019-03-29T10:38:32.339Z,101994.03
2019-03-29T10:41:38.149Z,101987.33
2019-03-29T10:44:40.739Z,101977.88
2019-03-29T10:47:44.342Z,101974.30
2019-03-29T10:50:47.658Z,101979.54
2019-03-29T10:53:50.973Z,101972.36
2019-03-29T10:56:54.309Z,101962.27
2019-03-29T10:59:57.612Z,101957.34
2019-03-29T11:03:00.911Z,101954.57
2019-03-29T11:06:04.225Z,101947.64
2019-03-29T11:09:08.535Z,101947.02
2019-03-29T11:12:11.851Z,101943.66
2019-03-29T11:15:15.159Z,101944.44
2019-03-29T11:18:18.543Z,101942.45
2019-03-29T11:21:21.903Z,101934.95
2019-03-29T11:24:25.219Z,101930.91
2019-03-29T11:27:28.628Z,101928.22
2019-03-29T11:30:42.117Z,101921.23
2019-03-29T11:33:37.061Z,101918.20
2019-03-29T11:36:40.458Z,101909.73
2019-03-29T11:39:43.764Z,101905.94
2019-03-29T11:42:47.084Z,101908.97
2019-03-29T11:45:55.615Z,101904.60
2019-03-29T11:48:58.317Z,101900.94
2019-03-29T11:52:01.668Z,101902.82
2019-03-29T11:55:06.109Z,101901.16
2019-03-29T11:58:09.456Z,101891.91
2019-03-29T12:01:12.796Z,101890.52
2019-03-29T12:04:16.152Z,101889.45
2019-03-29T12:07:19.422Z,101886.58
2019-03-29T12:10:22.747Z,101880.24
2019-03-29T12:13:35.027Z,101870.95
2019-03-29T12:16:31.134Z,101865.69
2019-03-29T12:19:34.539Z,101857.97
2019-03-29T12:22:38.028Z,101857.44
2019-03-29T12:25:41.444Z,101853.34
2019-03-29T12:28:44.838Z,101843.81
2019-03-29T12:31:48.430Z,101842.14
2019-03-29T12:34:51.825Z,101826.68
2019-03-29T12:37:55.227Z,101825.39
2019-03-29T12:40:58.630Z,101810.38
2019-03-29T12:44:02.034Z,101798.37
2019-03-29T12:47:05.425Z,101797.97
2019-03-29T12:50:08.830Z,101785.71
2019-03-29T12:53:12.223Z,101778.56
2019-03-29T12:56:15.624Z,101776.20
2019-03-29T12:59:19.025Z,101775.38
2019-03-29T13:02:22.408Z,101769.02
2019-03-29T13:05:25.813Z,101778.09
2019-03-29T13:08:35.055Z,101766.03
2019-03-29T13:11:42.431Z,101761.33
2019-03-29T13:14:45.905Z,101754.67
2019-03-29T13:17:49.289Z,101754.94
2019-03-29T13:20:52.760Z,101747.84
2019-03-29T13:23:56.143Z,101745.09
2019-03-29T13:26:59.562Z,101742.59
2019-03-29T13:30:02.970Z,101737.98
2019-03-29T13:33:06.359Z,101742.27
2019-03-29T13:36:09.762Z,101737.96
2019-03-29T13:39:13.149Z,101733.17
2019-03-29T13:42:16.543Z,101731.13
2019-03-29T13:45:19.863Z,101733.05
2019-03-29T13:48:23.242Z,101730.00
2019-03-29T13:51:26.554Z,101721.39
2019-03-29T13:54:29.867Z,101718.35
2019-03-29T13:57:33.235Z,101713.62
2019-03-29T14:00:36.542Z,101706.88
2019-03-29T14:03:39.882Z,101712.81
2019-03-29T14:06:43.217Z,101708.55
2019-03-29T14:09:46.514Z,101696.78
2019-03-29T14:12:49.837Z,101692.19
2019-03-29T14:15:53.172Z,101690.09
2019-03-29T14:18:56.502Z,101686.88
2019-03-29T14:21:59.829Z,101681.69
2019-03-29T14:25:03.149Z,101678.33
2019-03-29T14:28:06.502Z,101672.91
2019-03-29T14:32:38.030Z,101642.05
2019-03-29T14:35:41.354Z,101666.50
2019-03-29T14:38:44.686Z,101658.14
2019-03-29T14:41:48.126Z,101659.58
2019-03-29T14:44:52.993Z,101641.55
2019-03-29T14:47:56.649Z,101642.98
2019-03-29T14:50:59.957Z,101636.70
2019-03-29T14:54:03.284Z,101638.58
2019-03-29T14:57:06.612Z,101643.50
2019-03-29T15:00:10.861Z,101638.55
2019-03-29T15:03:14.201Z,101638.76
2019-03-29T15:06:17.495Z,101634.34
2019-03-29T15:09:20.812Z,101633.16
2019-03-29T15:12:24.109Z,101640.72
2019-03-29T15:15:27.440Z,101637.78
2019-03-29T15:18:30.727Z,101622.58
2019-03-29T15:21:34.100Z,101618.46
2019-03-29T15:24:37.484Z,101615.65
2019-03-29T15:27:40.782Z,101617.61
2019-03-29T15:30:44.095Z,101610.05
2019-03-29T15:33:47.499Z,101607.84
2019-03-29T15:36:50.793Z,101605.29
2019-03-29T15:39:54.131Z,101610.44
2019-03-29T15:42:57.773Z,101599.00
2019-03-29T15:46:02.015Z,101603.55
2019-03-29T15:49:05.330Z,101597.00
2019-03-29T15:52:08.639Z,101599.45
2019-03-29T15:55:12.023Z,101586.27
2019-03-29T15:58:15.294Z,101588.42
2019-03-29T16:01:18.618Z,101591.92
2019-03-29T16:04:21.910Z,101576.85
2019-03-29T16:07:25.302Z,101584.50
2019-03-29T16:10:28.607Z,101574.22
2019-03-29T16:13:31.922Z,101580.02
2019-03-29T16:16:35.262Z,101578.77
2019-03-29T16:19:38.583Z,101570.09
2019-03-29T16:22:41.959Z,101567.78
2019-03-29T16:25:45.418Z,101566.67
2019-03-29T16:28:48.731Z,101560.20
2019-03-29T16:31:52.037Z,101561.72
2019-03-29T16:34:55.332Z,101556.39
2019-03-29T16:37:58.647Z,101554.75
2019-03-29T16:41:01.947Z,101546.25
2019-03-29T16:44:05.422Z,101548.98
2019-03-29T16:47:08.756Z,101543.22
2019-03-29T16:50:12.084Z,101540.52
2019-03-29T16:53:15.455Z,101535.05
2019-03-29T16:56:18.762Z,101529.65
2019-03-29T16:59:22.084Z,101525.48
2019-03-29T17:02:25.394Z,101521.73
2019-03-29T17:05:28.865Z,101513.72
2019-03-29T17:08:32.208Z,101519.02
2019-03-29T17:11:35.657Z,101522.09
2019-03-29T17:14:39.024Z,101519.94
2019-03-29T17:17:42.348Z,101520.61
2019-03-29T17:20:45.740Z,101521.37
2019-03-29T17:23:52.423Z,101520.01
2019-03-29T17:26:54.021Z,101518.24
2019-03-29T17:29:57.326Z,101505.69
2019-03-29T17:33:00.617Z,101501.63
2019-03-29T17:36:04.004Z,101504.08
2019-03-29T17:39:07.425Z,101506.98
2019-03-29T17:42:10.759Z,101502.38
2019-03-29T17:45:14.075Z,101492.19
2019-03-29T17:48:17.368Z,101497.00
2019-03-29T17:51:20.696Z,101492.39
2019-03-29T17:54:23.992Z,101492.57
2019-03-29T17:57:27.476Z,101494.70
2019-03-29T18:00:30.791Z,101490.16
2019-03-29T18:03:34.116Z,101491.72
2019-03-29T18:06:37.516Z,101489.53
2019-03-29T18:09:40.811Z,101490.91
2019-03-29T18:12:44.133Z,101491.48
2019-03-29T18:15:47.437Z,101485.98
2019-03-29T18:18:50.786Z,101481.37
2019-03-29T18:21:54.127Z,101485.73
2019-03-29T18:24:57.552Z,101488.34
2019-03-29T18:28:00.889Z,101487.13
2019-03-29T18:31:04.204Z,101495.41
2019-03-29T18:34:07.601Z,101495.12
2019-03-29T18:37:10.990Z,101495.16
2019-03-29T18:40:17.639Z,101493.27
2019-03-29T18:43:20.964Z,101488.15
2019-03-29T18:46:24.275Z,101490.01
2019-03-29T18:49:27.563Z,101484.89
2019-03-29T18:52:30.892Z,101486.88
2019-03-29T18:55:34.342Z,101491.27
2019-03-29T18:58:37.644Z,101489.52
2019-03-29T19:01:41.084Z,101489.17
2019-03-29T19:04:44.427Z,101489.17
2019-03-29T19:07:47.743Z,101490.98
2019-03-29T19:10:51.045Z,101490.30
2019-03-29T19:13:54.375Z,101489.27
2019-03-29T19:16:59.140Z,101489.43
2019-03-29T19:20:03.903Z,101491.31
2019-03-29T19:23:07.235Z,101486.06
2019-03-29T19:26:10.581Z,101492.44
2019-03-29T19:29:13.907Z,101490.00
2019-03-29T19:32:17.213Z,101489.16
2019-03-29T19:35:20.549Z,101490.00
2019-03-29T19:38:23.875Z,101483.52
2019-03-29T19:41:27.156Z,101482.17
2019-03-29T19:44:30.468Z,101486.60
2019-03-29T19:47:33.778Z,101480.44
2019-03-29T19:50:37.091Z,101477.88
2019-03-29T19:53:40.404Z,101486.72
2019-03-29T19:56:43.727Z,101486.16
2019-03-29T19:59:48.325Z,101483.75
2019-03-29T20:02:52.068Z,101482.70
2019-03-29T20:05:55.390Z,101474.86
2019-03-29T20:09:01.041Z,101469.53
2019-03-29T20:12:04.188Z,101475.17
2019-03-29T20:15:07.557Z,101476.91
2019-03-29T20:18:11.087Z,101475.02
2019-03-29T20:21:14.411Z,101477.37
2019-03-29T20:24:17.756Z,101471.67
2019-03-29T20:27:21.205Z,101471.79
2019-03-29T20:30:25.068Z,101479.09
2019-03-29T20:33:28.378Z,101478.16
2019-03-29T20:36:31.686Z,101473.87
2019-03-29T20:39:35.064Z,101470.17
2019-03-29T20:42:38.327Z,101472.56
2019-03-29T20:45:41.640Z,101466.42
2019-03-29T20:48:44.973Z,101470.95
2019-03-29T20:51:48.277Z,101473.70
2019-03-29T20:54:52.095Z,101463.25
2019-03-29T20:57:55.434Z,101460.07
2019-03-29T21:00:58.766Z,101454.95
2019-03-29T21:04:02.282Z,101460.40
2019-03-29T21:07:05.589Z,101452.48
2019-03-29T21:10:09.035Z,101455.00
2019-03-29T21:13:12.324Z,101455.83
2019-03-29T21:16:15.680Z,101454.48
2019-03-29T21:19:19.049Z,101458.31
2019-03-29T21:22:23.983Z,101456.41
2019-03-29T21:25:27.334Z,101450.91
2019-03-29T21:28:30.711Z,101447.99
2019-03-29T21:31:34.116Z,101443.25
2019-03-29T21:34:37.454Z,101444.23
2019-03-29T21:37:40.790Z,101448.03
2019-03-29T21:40:44.126Z,101440.69
2019-03-29T21:43:47.471Z,101444.11
2019-03-29T21:46:50.796Z,101439.05
2019-03-29T21:49:54.136Z,101435.87
2019-03-29T21:52:57.441Z,101430.32
2019-03-29T21:56:00.798Z,101432.39
2019-03-29T21:59:04.144Z,101424.73
2019-03-29T22:02:07.466Z,101430.52
2019-03-29T22:05:10.908Z,101430.20
2019-03-29T22:08:17.755Z,101426.89
2019-03-29T22:11:19.536Z,101431.86
2019-03-29T22:14:22.893Z,101428.17
2019-03-29T22:17:26.284Z,101425.07
2019-03-29T22:20:29.633Z,101428.70
2019-03-29T22:23:33.528Z,101420.92
2019-03-29T22:26:37.026Z,101426.45
2019-03-29T22:29:40.646Z,101421.26
2019-03-29T22:32:44.055Z,101415.34
2019-03-29T22:35:47.406Z,101413.33
2019-03-29T22:38:50.722Z,101413.33
2019-03-29T22:41:54.041Z,101403.47
2019-03-29T22:44:57.452Z,101412.79
2019-03-29T22:48:03.015Z,101400.73
2019-03-29T22:51:05.877Z,101406.41
2019-03-29T22:54:09.217Z,101396.36
2019-03-29T22:57:12.561Z,101391.39
2019-03-29T23:00:26.632Z,101396.05
2019-03-29T23:03:29.993Z,101381.46
2019-03-29T23:06:37.627Z,101393.49
2019-03-29T23:09:44.379Z,101384.86
2019-03-29T23:12:52.216Z,101384.98
2019-03-29T23:15:58.455Z,101388.63
2019-03-29T23:19:06.694Z,101377.92
2019-03-29T23:22:07.028Z,101379.70
2019-03-29T23:25:10.373Z,101376.17
2019-03-29T23:28:13.697Z,101374.09
2019-03-29T23:31:17.019Z,101377.60
2019-03-29T23:34:20.433Z,101379.41
2019-03-29T23:37:23.782Z,101377.82
2019-03-29T23:40:27.089Z,101382.94
2019-03-29T23:43:30.426Z,101382.42
2019-03-29T23:46:33.793Z,101366.30
2019-03-29T23:49:37.225Z,101371.80
2019-03-29T23:52:42.073Z,101368.07
2019-03-29T23:55:45.416Z,101368.84
2019-03-29T23:58:48.722Z,101361.75
